Leesburg, AL

10:16 AM CDT on September 30, 2014 (GMT -0500)
Russell | Change Station
CLOSE
Current Station
Airport
Location: Rome,
Elevation: 643 ft
Nearby Weather Stations

Elev 643 ft 34.35 °N, 85.16 °W | Updated 23 minutes ago

Overcast
Overcast
65 °F
Feels Like 65 °F
N
0
Wind Variable Wind from North

Today
High -- | Low -- °F
--% Chance of Precip.
Yesterday
High -- | Low -- °F
Precip. -- in
6:36 AM 6:28 PM
Waxing Crescent, 37% visible
Pressure 29.96 in
Visibility 10.0 miles
Clouds Mostly Cloudy 300 ft
Overcast 1500 ft
Dew Point 65 °F
Humidity 100%
Rainfall 0.00 in
Snow Depth Not available.
UV 1 out of 12
Pollen 5.80 out of 12
Air Quality Not available.
Flu Activity Not available.
METAR KRMG 301453Z AUTO 00000KT 10SM BKN003 OVC015 18/18 A2998 RMK AO2 SLP146 T01830183 50003

More Conditions Fewer Conditions

Pressure 29.96 in
Visibility 10.0 miles
Clouds Mostly Cloudy 300 ft
Overcast 1500 ft
Dew Point 65 °F
Humidity 100%
Rainfall 0.00 in
Snow Depth Not available.
UV 1 out of 12
Pollen 5.80 out of 12
Air Quality Not available.
Flu Activity Not available.
METAR KRMG 301453Z AUTO 00000KT 10SM BKN003 OVC015 18/18 A2998 RMK AO2 SLP146 T01830183 50003

More Conditions Fewer Conditions

10-Day Weather Forecast

Almanac

Astronomy

Sep. 30, 2014 Rise Set
Actual Time 6:36 AM CDT 6:28 PM CDT
Civil Twilight 6:11 AM CDT 6:53 PM CDT
Nautical Twilight 5:42 AM CDT 7:22 PM CDT
Astronomical Twilight 5:13 AM CDT 7:51 PM CDT
Moon 12:32 PM CDT 11:09 PM CDT
Length of Visible Light 12h 41m
Length of Day
11h 51m
Tomorrow will be 2m 5s shorter.
Waxing Crescent, 37% of the Moon is Illuminated
Today
Waxing Crescent
Oct 1
First Quarter
Oct 8
Full
Oct 15
Last Quarter
Oct 23
New

Today's Extremes

State Highs State Lows

Community

WunderPhotos

Upload Photos

1,757,657 photos uploaded!

WunderBlogs® & News

Nearby

Snow Depth

Station Depth Elevation
No new snow has been reported.

Earthquake Activity

City Distance Mag. Time & Date
No recent earthquake activity has been reported nearby.
Minimum magnitude displayed is 2.5.

Coastal Water Temperatures

Place Temperature
No Stations Reporting

Nearby Weather Stations